createdAt,value
2022-12-03T00:00:41.514Z,29.56
2022-12-03T00:03:14.445Z,29.55
2022-12-03T00:05:48.886Z,29.75
2022-12-03T00:08:19.435Z,29.55
2022-12-03T00:10:49.907Z,29.77
2022-12-03T00:13:19.971Z,29.84
2022-12-03T00:15:50.435Z,29.51
2022-12-03T00:18:20.541Z,29.32
2022-12-03T00:20:50.299Z,29.61
2022-12-03T00:23:20.721Z,29.86
2022-12-03T00:25:50.781Z,29.74
2022-12-03T00:28:21.450Z,29.73
2022-12-03T00:30:59.545Z,29.67
2022-12-03T00:33:29.997Z,29.56
2022-12-03T00:36:00.544Z,29.51
2022-12-03T00:38:29.870Z,29.67
2022-12-03T00:41:00.242Z,29.38
2022-12-03T00:43:30.177Z,29.19
2022-12-03T00:46:00.730Z,29.01
2022-12-03T00:48:30.779Z,29.23
2022-12-03T00:51:01.168Z,29.23
2022-12-03T00:53:31.526Z,29.46
2022-12-03T00:56:02.753Z,29.60
2022-12-03T00:58:32.834Z,29.47
2022-12-03T01:01:03.321Z,29.23
2022-12-03T01:03:33.416Z,29.40
2022-12-03T01:06:03.903Z,29.50
2022-12-03T01:08:37.037Z,29.45
2022-12-03T01:11:27.424Z,29.41
2022-12-03T01:13:57.522Z,29.33
2022-12-03T01:16:28.096Z,29.33
2022-12-03T01:18:58.137Z,29.29
2022-12-03T01:21:29.145Z,29.26
2022-12-03T01:23:59.209Z,29.14
2022-12-03T01:26:29.625Z,29.29
2022-12-03T01:28:59.436Z,29.22
2022-12-03T01:31:48.007Z,29.38
2022-12-03T01:34:18.365Z,29.05
2022-12-03T01:36:53.558Z,29.06
2022-12-03T01:39:23.587Z,28.99
2022-12-03T01:41:55.035Z,28.99
2022-12-03T01:44:31.615Z,28.83
2022-12-03T01:47:04.857Z,28.80
2022-12-03T01:49:45.616Z,28.51
2022-12-03T01:52:18.961Z,28.24
2022-12-03T01:54:54.416Z,28.52
2022-12-03T01:57:28.481Z,28.59
2022-12-03T02:00:01.130Z,28.24
2022-12-03T02:02:35.287Z,28.21
2022-12-03T02:05:21.789Z,28.33
2022-12-03T02:07:52.220Z,27.89
2022-12-03T02:10:29.645Z,27.90
2022-12-03T02:13:03.912Z,27.76
2022-12-03T02:15:34.534Z,27.77
2022-12-03T02:18:04.757Z,27.54
2022-12-03T02:20:44.045Z,27.01
2022-12-03T02:23:40.381Z,26.78
2022-12-03T02:26:10.948Z,26.65
2022-12-03T02:28:41.432Z,27.06
2022-12-03T02:31:11.975Z,27.17
2022-12-03T02:33:42.175Z,27.26
2022-12-03T02:36:13.558Z,27.21
2022-12-03T02:38:46.656Z,27.17
2022-12-03T02:41:38.713Z,27.34
2022-12-03T02:44:09.822Z,27.55
2022-12-03T02:46:43.305Z,27.59
2022-12-03T02:49:13.456Z,27.61
2022-12-03T02:51:43.916Z,27.54
2022-12-03T02:54:14.011Z,27.62
2022-12-03T02:56:46.932Z,27.62
2022-12-03T02:59:16.952Z,27.54
2022-12-03T03:01:47.620Z,27.54
2022-12-03T03:04:18.081Z,27.61
2022-12-03T03:06:48.465Z,27.51
2022-12-03T03:09:17.760Z,27.51
2022-12-03T03:11:48.493Z,27.30
2022-12-03T03:14:18.870Z,27.36
2022-12-03T03:16:56.926Z,27.26
2022-12-03T03:19:28.249Z,27.26
2022-12-03T03:21:58.676Z,27.25
2022-12-03T03:24:29.117Z,26.99
2022-12-03T03:26:59.249Z,26.81
2022-12-03T03:29:29.777Z,26.67
2022-12-03T03:32:00.992Z,26.68
2022-12-03T03:34:33.908Z,26.55
2022-12-03T03:37:04.721Z,26.54
2022-12-03T03:39:35.243Z,26.61
2022-12-03T03:42:05.603Z,26.52
2022-12-03T03:44:36.013Z,26.31
2022-12-03T03:47:06.227Z,26.06
2022-12-03T03:49:36.923Z,25.98
2022-12-03T03:52:07.088Z,25.89
2022-12-03T03:54:41.324Z,25.79
2022-12-03T03:57:11.415Z,25.80
2022-12-03T03:59:42.417Z,25.73
2022-12-03T04:02:22.505Z,25.70
2022-12-03T04:04:54.155Z,25.71
2022-12-03T04:07:24.428Z,25.70
2022-12-03T04:09:54.875Z,25.42
2022-12-03T04:12:42.974Z,25.64
2022-12-03T04:15:13.276Z,25.73
2022-12-03T04:17:42.754Z,25.80
2022-12-03T04:20:13.306Z,25.75
2022-12-03T04:22:43.814Z,25.76
2022-12-03T04:25:33.982Z,25.47
2022-12-03T04:28:25.776Z,25.65
2022-12-03T04:30:58.093Z,25.68
2022-12-03T04:33:46.730Z,25.67
2022-12-03T04:36:16.851Z,25.62
2022-12-03T04:38:47.374Z,25.68
2022-12-03T04:41:17.306Z,25.61
2022-12-03T04:44:06.047Z,25.73
2022-12-03T04:46:36.023Z,25.52
2022-12-03T04:49:06.440Z,25.50
2022-12-03T04:51:35.969Z,25.61
2022-12-03T04:54:06.046Z,25.62
2022-12-03T04:56:36.443Z,25.40
2022-12-03T04:59:07.231Z,25.67
2022-12-03T05:01:39.590Z,25.75
2022-12-03T05:04:09.785Z,25.53
2022-12-03T05:06:40.438Z,25.62
2022-12-03T05:09:10.641Z,25.47
2022-12-03T05:11:44.448Z,25.54
2022-12-03T05:14:14.940Z,25.67
2022-12-03T05:16:45.364Z,25.65
2022-12-03T05:19:15.312Z,25.66
2022-12-03T05:21:45.888Z,25.15
2022-12-03T05:24:17.061Z,25.08
2022-12-03T05:26:47.673Z,25.24
2022-12-03T05:29:17.193Z,24.99
2022-12-03T05:31:46.839Z,25.30
2022-12-03T05:34:17.358Z,24.98
2022-12-03T05:36:47.433Z,24.94
2022-12-03T05:39:18.827Z,25.00
2022-12-03T05:42:07.569Z,24.79
2022-12-03T05:44:37.985Z,25.02
2022-12-03T05:47:08.083Z,25.33
2022-12-03T05:49:38.507Z,25.34
2022-12-03T05:52:08.410Z,25.36
2022-12-03T05:54:41.861Z,25.24
2022-12-03T05:57:11.945Z,24.99
2022-12-03T05:59:42.406Z,25.12
2022-12-03T06:02:12.029Z,25.45
2022-12-03T06:04:42.527Z,25.49
2022-12-03T06:07:14.166Z,25.30
2022-12-03T06:09:44.875Z,25.03
2022-12-03T06:12:14.524Z,24.72
2022-12-03T06:14:44.261Z,24.93
2022-12-03T06:17:14.716Z,25.12
2022-12-03T06:19:44.794Z,25.41
2022-12-03T06:22:18.065Z,25.44
2022-12-03T06:24:48.579Z,25.51
2022-12-03T06:27:19.030Z,25.06
2022-12-03T06:29:49.001Z,25.12
2022-12-03T06:32:19.397Z,25.50
2022-12-03T06:34:48.856Z,25.59
2022-12-03T06:37:22.385Z,25.52
2022-12-03T06:39:52.907Z,25.42
2022-12-03T06:42:22.902Z,25.37
2022-12-03T06:44:53.533Z,25.56
2022-12-03T06:47:23.689Z,25.37
2022-12-03T06:49:54.130Z,25.48
2022-12-03T06:52:24.151Z,24.96
2022-12-03T06:54:56.837Z,24.75
2022-12-03T06:57:26.929Z,24.74
2022-12-03T06:59:57.535Z,25.31
2022-12-03T07:02:27.664Z,25.35
2022-12-03T07:04:58.368Z,25.26
2022-12-03T07:07:28.528Z,25.37
2022-12-03T07:09:58.506Z,25.47
2022-12-03T07:12:28.985Z,25.47
2022-12-03T07:14:59.062Z,25.48
2022-12-03T07:17:31.746Z,25.20
2022-12-03T07:20:01.210Z,25.20
2022-12-03T07:22:31.003Z,25.31
2022-12-03T07:25:01.366Z,25.44
2022-12-03T07:27:30.786Z,25.41
2022-12-03T07:30:00.776Z,25.00
2022-12-03T07:32:31.203Z,25.28
2022-12-03T07:35:02.212Z,25.53
2022-12-03T07:37:38.613Z,25.56
2022-12-03T07:40:09.361Z,25.60
2022-12-03T07:42:39.854Z,25.54
2022-12-03T07:45:10.652Z,25.55
2022-12-03T07:47:41.200Z,25.57
2022-12-03T07:50:10.993Z,24.99
2022-12-03T07:52:41.216Z,24.90
2022-12-03T07:55:15.913Z,25.06
2022-12-03T07:57:46.505Z,25.00
2022-12-03T08:00:18.511Z,25.02
2022-12-03T08:02:49.047Z,25.24
2022-12-03T08:05:19.256Z,25.25
2022-12-03T08:07:49.704Z,25.39
2022-12-03T08:10:21.039Z,25.46
2022-12-03T08:12:51.613Z,25.48
2022-12-03T08:15:27.077Z,25.51
2022-12-03T08:18:02.274Z,25.56
2022-12-03T08:20:36.329Z,25.43
2022-12-03T08:23:16.578Z,25.40
2022-12-03T08:25:47.737Z,25.44
2022-12-03T08:28:28.442Z,25.53
2022-12-03T08:30:58.394Z,25.51
2022-12-03T08:33:34.659Z,25.42
2022-12-03T08:36:22.775Z,25.44
2022-12-03T08:38:53.234Z,25.58
2022-12-03T08:41:50.784Z,24.92
2022-12-03T08:44:31.801Z,24.75
2022-12-03T08:47:20.792Z,24.62
2022-12-03T08:50:00.999Z,24.52
2022-12-03T08:52:36.321Z,24.55
2022-12-03T08:55:39.814Z,24.38
2022-12-03T08:58:27.437Z,24.47
2022-12-03T09:01:17.787Z,24.68
2022-12-03T09:03:57.861Z,24.86
2022-12-03T09:06:28.319Z,24.98
2022-12-03T09:09:00.131Z,25.41
2022-12-03T09:11:32.824Z,25.48
2022-12-03T09:14:02.324Z,25.44
2022-12-03T09:16:32.079Z,25.48
2022-12-03T09:19:02.992Z,25.63
2022-12-03T09:21:32.955Z,25.73
2022-12-03T09:24:03.394Z,25.83
2022-12-03T09:26:33.555Z,25.93
2022-12-03T09:29:08.928Z,26.04
2022-12-03T09:31:42.136Z,26.07
2022-12-03T09:34:13.421Z,26.00
2022-12-03T09:36:43.486Z,26.24
2022-12-03T09:39:14.093Z,26.24
2022-12-03T09:41:47.329Z,26.35
2022-12-03T09:44:18.415Z,26.54
2022-12-03T09:46:49.474Z,26.47
2022-12-03T09:49:21.358Z,26.62
2022-12-03T09:51:51.395Z,26.81
2022-12-03T09:54:27.735Z,27.01
2022-12-03T09:57:00.588Z,27.12
2022-12-03T09:59:34.403Z,27.11
2022-12-03T10:02:04.933Z,27.10
2022-12-03T10:04:35.741Z,27.10
2022-12-03T10:07:05.861Z,27.19
2022-12-03T10:09:37.020Z,27.23
2022-12-03T10:12:07.405Z,27.44
2022-12-03T10:14:37.961Z,27.54
2022-12-03T10:17:08.263Z,27.60
2022-12-03T10:19:40.679Z,27.65
2022-12-03T10:22:10.814Z,28.01
2022-12-03T10:24:41.661Z,28.18
2022-12-03T10:27:26.297Z,28.19
2022-12-03T10:30:02.016Z,28.44
2022-12-03T10:32:44.287Z,28.34
2022-12-03T10:35:22.419Z,28.52
2022-12-03T10:38:04.598Z,28.82
2022-12-03T10:40:40.503Z,28.82
2022-12-03T10:43:26.542Z,29.09
2022-12-03T10:46:04.459Z,29.20
2022-12-03T10:48:34.826Z,28.84
2022-12-03T10:51:08.809Z,28.51
2022-12-03T10:53:41.227Z,28.86
2022-12-03T10:56:19.309Z,29.34
2022-12-03T10:58:49.367Z,29.59
2022-12-03T11:01:26.439Z,29.19
2022-12-03T11:04:02.198Z,29.30
2022-12-03T11:06:34.256Z,30.00
2022-12-03T11:09:09.080Z,30.88
2022-12-03T11:11:39.761Z,30.51
2022-12-03T11:14:14.748Z,30.83
2022-12-03T11:16:49.203Z,30.81
2022-12-03T11:19:40.491Z,31.28
2022-12-03T11:22:11.276Z,30.94
2022-12-03T11:24:42.136Z,30.72
2022-12-03T11:27:12.835Z,30.77
2022-12-03T11:29:57.583Z,31.38
2022-12-03T11:32:40.536Z,31.98
2022-12-03T11:35:18.527Z,31.99
2022-12-03T11:37:48.967Z,32.22
2022-12-03T11:40:19.032Z,31.94
2022-12-03T11:42:51.770Z,32.24
2022-12-03T11:45:33.191Z,32.73
2022-12-03T11:48:12.533Z,32.03
2022-12-03T11:50:55.466Z,31.80
2022-12-03T11:53:28.316Z,31.59
2022-12-03T11:56:09.579Z,31.73
2022-12-03T11:58:43.886Z,31.52
2022-12-03T12:01:14.782Z,31.85
2022-12-03T12:03:52.375Z,31.47
2022-12-03T12:06:23.256Z,31.05
2022-12-03T12:08:53.778Z,31.01
2022-12-03T12:11:44.966Z,30.91
2022-12-03T12:14:16.006Z,31.74
2022-12-03T12:16:52.451Z,32.63
2022-12-03T12:19:45.080Z,33.31
2022-12-03T12:22:34.889Z,33.73
2022-12-03T12:25:31.236Z,34.76
2022-12-03T12:28:01.251Z,36.49
2022-12-03T12:30:32.054Z,37.33
2022-12-03T12:33:19.585Z,37.17
2022-12-03T12:35:50.046Z,37.54
2022-12-03T12:38:24.172Z,37.66
2022-12-03T12:40:55.057Z,38.87
2022-12-03T12:43:34.939Z,38.49
2022-12-03T12:49:14.701Z,39.20
2022-12-03T12:51:50.608Z,39.50
2022-12-03T12:54:20.644Z,39.37
2022-12-03T12:56:54.945Z,39.23
2022-12-03T12:59:28.088Z,38.90
2022-12-03T13:01:58.284Z,37.50
2022-12-03T13:04:31.715Z,36.53
2022-12-03T13:07:01.689Z,36.77
2022-12-03T13:09:32.261Z,35.98
2022-12-03T13:12:08.626Z,35.85
2022-12-03T13:14:42.611Z,36.74
2022-12-03T13:17:25.486Z,37.65
2022-12-03T13:20:06.754Z,37.38
2022-12-03T13:22:37.462Z,38.05
2022-12-03T13:25:59.174Z,38.07
2022-12-03T13:28:31.991Z,37.03
2022-12-03T13:31:28.373Z,36.76
2022-12-03T13:33:59.528Z,36.57
2022-12-03T13:36:44.737Z,35.49
2022-12-03T13:39:31.548Z,35.46
2022-12-03T13:42:43.670Z,35.74
2022-12-03T13:45:16.620Z,36.45
2022-12-03T13:47:49.230Z,36.90
2022-12-03T13:50:38.221Z,35.94
2022-12-03T13:53:24.471Z,35.85
2022-12-03T13:56:09.793Z,35.36
2022-12-03T13:58:40.200Z,34.84
2022-12-03T14:01:10.318Z,34.94
2022-12-03T14:03:40.773Z,36.26
2022-12-03T14:06:10.800Z,36.23
2022-12-03T14:08:41.264Z,37.15
2022-12-03T14:11:31.115Z,37.53
2022-12-03T14:14:01.583Z,36.80
2022-12-03T14:16:31.539Z,36.28
2022-12-03T14:19:05.115Z,37.04
2022-12-03T14:21:35.223Z,36.43
2022-12-03T14:24:05.889Z,37.60
2022-12-03T14:26:36.000Z,37.70
2022-12-03T14:29:08.892Z,38.09
2022-12-03T14:31:39.207Z,38.11
2022-12-03T14:34:09.981Z,38.87
2022-12-03T14:36:40.004Z,39.45
2022-12-03T14:39:10.425Z,40.15
2022-12-03T14:41:58.469Z,39.33
2022-12-03T14:44:28.863Z,39.43
2022-12-03T14:47:00.650Z,38.61
2022-12-03T14:49:31.718Z,39.13
2022-12-03T14:52:02.176Z,40.33
2022-12-03T14:54:32.595Z,41.40
2022-12-03T14:57:02.605Z,40.22
2022-12-03T14:59:33.155Z,40.89
2022-12-03T15:02:03.276Z,42.20
2022-12-03T15:04:33.691Z,43.16
2022-12-03T15:07:03.662Z,44.25
2022-12-03T15:09:34.107Z,41.83
2022-12-03T15:12:08.890Z,41.03
2022-12-03T15:14:39.293Z,41.32
2022-12-03T15:17:09.373Z,40.56
2022-12-03T15:19:39.770Z,37.46
2022-12-03T15:22:09.710Z,37.71
2022-12-03T15:24:40.139Z,38.59
2022-12-03T15:27:10.757Z,37.98
2022-12-03T15:29:42.258Z,37.86
2022-12-03T15:32:12.218Z,37.72
2022-12-03T15:34:42.561Z,36.75
2022-12-03T15:37:12.349Z,36.09
2022-12-03T15:39:48.225Z,35.90
2022-12-03T15:42:19.593Z,35.50
2022-12-03T15:44:49.349Z,35.07
2022-12-03T15:47:19.903Z,35.78
2022-12-03T15:49:50.001Z,35.08
2022-12-03T15:52:20.569Z,35.11
2022-12-03T15:54:52.941Z,34.40
2022-12-03T15:57:24.992Z,34.22
2022-12-03T15:59:57.924Z,34.41
2022-12-03T16:02:34.874Z,35.14
2022-12-03T16:05:13.343Z,35.23
2022-12-03T16:07:46.906Z,35.34
2022-12-03T16:10:18.667Z,34.84
2022-12-03T16:12:49.648Z,34.85
2022-12-03T16:15:23.673Z,35.22
2022-12-03T16:17:57.262Z,35.33
2022-12-03T16:20:27.237Z,35.26
2022-12-03T16:22:57.911Z,35.94
2022-12-03T16:25:28.572Z,35.79
2022-12-03T16:27:59.554Z,36.50
2022-12-03T16:30:29.631Z,36.12
2022-12-03T16:32:59.543Z,36.84
2022-12-03T16:35:30.101Z,36.25
2022-12-03T16:38:00.145Z,35.44
2022-12-03T16:40:30.662Z,35.20
2022-12-03T16:43:00.758Z,34.54
2022-12-03T16:45:31.189Z,34.53
2022-12-03T16:48:02.423Z,34.17
2022-12-03T16:50:32.955Z,34.25
2022-12-03T16:53:03.002Z,34.38
2022-12-03T16:55:33.593Z,34.46
2022-12-03T16:58:03.418Z,34.12
2022-12-03T17:00:33.868Z,33.69
2022-12-03T17:03:06.015Z,34.04
2022-12-03T17:05:36.502Z,34.51
2022-12-03T17:08:06.458Z,34.82
2022-12-03T17:10:37.180Z,34.99
2022-12-03T17:13:09.736Z,35.30
2022-12-03T17:15:41.018Z,35.80
2022-12-03T17:18:13.392Z,35.86
2022-12-03T17:20:44.181Z,35.70
2022-12-03T17:23:14.570Z,35.05
2022-12-03T17:25:45.065Z,34.71
2022-12-03T17:28:15.132Z,34.67
2022-12-03T17:30:45.583Z,34.70
2022-12-03T17:33:15.426Z,34.78
2022-12-03T17:35:46.999Z,35.80
2022-12-03T17:38:17.618Z,36.87
2022-12-03T17:40:48.028Z,37.59
2022-12-03T17:43:18.081Z,37.02
2022-12-03T17:45:51.555Z,35.84
2022-12-03T17:48:22.344Z,35.45
2022-12-03T17:50:53.476Z,35.30
2022-12-03T17:53:23.589Z,34.33
2022-12-03T17:55:53.585Z,34.16
2022-12-03T17:58:24.269Z,33.95
2022-12-03T18:00:58.768Z,33.74
2022-12-03T18:03:32.643Z,33.67
2022-12-03T18:06:02.644Z,34.08
2022-12-03T18:08:33.196Z,33.79
2022-12-03T18:11:03.319Z,33.55
2022-12-03T18:13:33.877Z,33.62
2022-12-03T18:16:04.068Z,33.73
2022-12-03T18:18:34.716Z,33.58
2022-12-03T18:21:05.351Z,32.72
2022-12-03T18:23:36.999Z,32.92
2022-12-03T18:26:07.562Z,32.93
2022-12-03T18:28:38.137Z,32.26
2022-12-03T18:31:16.109Z,32.13
2022-12-03T18:33:46.638Z,31.74
2022-12-03T18:36:27.817Z,32.07
2022-12-03T18:39:01.670Z,31.99
2022-12-03T18:41:31.891Z,32.41
2022-12-03T18:44:06.195Z,32.67
2022-12-03T18:46:52.944Z,32.64
2022-12-03T18:49:27.258Z,32.81
2022-12-03T18:51:59.610Z,32.63
2022-12-03T18:54:30.419Z,32.72
2022-12-03T18:57:00.415Z,32.66
2022-12-03T18:59:31.239Z,32.72
2022-12-03T19:02:04.934Z,32.39
2022-12-03T19:04:35.877Z,32.33
2022-12-03T19:07:06.004Z,31.99
2022-12-03T19:09:36.548Z,31.90
2022-12-03T19:12:12.857Z,32.08
2022-12-03T19:14:45.076Z,32.06
2022-12-03T19:17:15.430Z,31.94
2022-12-03T19:19:45.907Z,31.67
2022-12-03T19:22:15.917Z,31.31
2022-12-03T19:24:46.478Z,31.13
2022-12-03T19:27:16.826Z,31.25
2022-12-03T19:29:50.554Z,31.48
2022-12-03T19:32:20.666Z,31.38
2022-12-03T19:34:51.461Z,31.40
2022-12-03T19:37:21.528Z,31.44
2022-12-03T19:39:55.284Z,31.58
2022-12-03T19:42:25.857Z,31.58
2022-12-03T19:44:55.906Z,31.26
2022-12-03T19:47:26.671Z,30.94
2022-12-03T19:49:57.308Z,31.16
2022-12-03T19:52:28.418Z,30.79
2022-12-03T19:54:58.658Z,30.97
2022-12-03T19:57:29.828Z,31.18
2022-12-03T20:00:00.314Z,31.04
2022-12-03T20:02:32.807Z,31.17
2022-12-03T20:05:03.358Z,31.29
2022-12-03T20:07:34.143Z,31.44
2022-12-03T20:10:04.678Z,31.36
2022-12-03T20:12:35.234Z,31.34
2022-12-03T20:15:07.219Z,31.33
2022-12-03T20:17:38.082Z,31.12
2022-12-03T20:20:09.036Z,31.02
2022-12-03T20:22:39.615Z,31.08
2022-12-03T20:25:09.983Z,31.02
2022-12-03T20:27:40.665Z,30.82
2022-12-03T20:30:11.241Z,30.62
2022-12-03T20:32:45.245Z,30.24
2022-12-03T20:35:15.610Z,30.14
2022-12-03T20:37:45.369Z,30.30
2022-12-03T20:40:15.907Z,30.40
2022-12-03T20:42:49.526Z,30.26
2022-12-03T20:45:20.196Z,30.16
2022-12-03T20:47:50.220Z,30.28
2022-12-03T20:50:21.547Z,30.20
2022-12-03T20:53:22.654Z,30.84
2022-12-03T20:55:57.452Z,31.16
2022-12-03T20:58:27.792Z,31.28
2022-12-03T21:01:24.459Z,31.51
2022-12-03T21:03:56.553Z,31.46
2022-12-03T21:06:31.305Z,30.89
2022-12-03T21:09:07.664Z,30.65
2022-12-03T21:11:40.270Z,30.50
2022-12-03T21:14:12.277Z,30.52
2022-12-03T21:17:07.378Z,30.70
2022-12-03T21:19:36.817Z,30.55
2022-12-03T21:22:08.344Z,30.70
2022-12-03T21:24:38.404Z,30.80
2022-12-03T21:27:08.882Z,30.86
2022-12-03T21:29:39.117Z,30.81
2022-12-03T21:32:09.571Z,30.62
2022-12-03T21:34:39.362Z,30.41
2022-12-03T21:37:09.829Z,30.46
2022-12-03T21:39:39.810Z,30.09
2022-12-03T21:42:22.337Z,30.01
2022-12-03T21:45:00.692Z,29.99
2022-12-03T21:47:36.500Z,29.84
2022-12-03T21:50:09.604Z,29.71
2022-12-03T21:52:39.767Z,29.52
2022-12-03T21:55:10.591Z,29.53
2022-12-03T21:57:40.677Z,29.40
2022-12-03T22:00:11.565Z,29.70
2022-12-03T22:02:42.115Z,29.49
2022-12-03T22:05:13.221Z,29.35
2022-12-03T22:07:43.516Z,29.20
2022-12-03T22:10:14.157Z,28.94
2022-12-03T22:12:44.203Z,28.67
2022-12-03T22:15:18.761Z,28.81
2022-12-03T22:17:49.778Z,28.61
2022-12-03T22:20:20.441Z,28.51
2022-12-03T22:22:50.871Z,28.27
2022-12-03T22:25:21.326Z,28.16
2022-12-03T22:27:51.324Z,28.06
2022-12-03T22:30:21.731Z,28.09
2022-12-03T22:32:51.708Z,28.09
2022-12-03T22:35:22.429Z,27.83
2022-12-03T22:37:52.441Z,27.76
2022-12-03T22:40:22.807Z,27.83
2022-12-03T22:42:52.807Z,27.84
2022-12-03T22:45:23.173Z,27.64
2022-12-03T22:47:53.180Z,27.59
2022-12-03T22:50:23.617Z,27.61
2022-12-03T22:52:52.944Z,27.40
2022-12-03T22:55:22.853Z,27.40
2022-12-03T22:57:53.285Z,27.39
2022-12-03T23:00:31.546Z,27.34
2022-12-03T23:03:02.188Z,27.25
2022-12-03T23:05:39.993Z,27.46
2022-12-03T23:08:14.220Z,27.47
2022-12-03T23:10:49.753Z,27.52
2022-12-03T23:13:21.818Z,27.27
2022-12-03T23:15:53.988Z,27.44
2022-12-03T23:18:24.620Z,27.49
2022-12-03T23:20:57.270Z,27.55
2022-12-03T23:23:29.165Z,27.63
2022-12-03T23:26:10.356Z,27.58
2022-12-03T23:28:42.982Z,27.42
2022-12-03T23:31:21.558Z,27.68
2022-12-03T23:33:53.012Z,27.61
2022-12-03T23:36:24.593Z,27.68
2022-12-03T23:38:55.718Z,27.68
2022-12-03T23:41:26.909Z,27.64
2022-12-03T23:43:58.828Z,27.58
2022-12-03T23:46:29.652Z,27.50
2022-12-03T23:49:00.809Z,27.57
2022-12-03T23:51:31.776Z,27.40
2022-12-03T23:54:02.735Z,27.29
2022-12-03T23:56:35.862Z,27.31
2022-12-03T23:59:06.265Z,27.30
